createdAt,value
2023-01-29T00:02:06.794Z,-2.80
2023-01-29T00:04:33.414Z,-2.80
2023-01-29T00:07:00.259Z,-2.90
2023-01-29T00:09:28.024Z,-3.00
2023-01-29T00:11:54.583Z,-3.00
2023-01-29T00:14:21.319Z,-3.00
2023-01-29T00:16:47.947Z,-3.10
2023-01-29T00:19:14.554Z,-3.00
2023-01-29T00:21:41.148Z,-3.00
2023-01-29T00:24:07.901Z,-2.90
2023-01-29T00:26:35.127Z,-3.00
2023-01-29T00:29:02.559Z,-3.00
2023-01-29T00:31:29.554Z,-3.10
2023-01-29T00:33:56.628Z,-3.10
2023-01-29T00:36:23.926Z,-3.20
2023-01-29T00:39:02.486Z,-3.10
2023-01-29T00:41:50.467Z,-3.10
2023-01-29T00:44:36.401Z,-3.20
2023-01-29T00:47:04.209Z,-3.20
2023-01-29T00:49:30.794Z,-3.20
2023-01-29T00:52:16.140Z,-3.10
2023-01-29T00:54:42.689Z,-3.20
2023-01-29T00:57:09.292Z,-3.10
2023-01-29T00:59:35.863Z,-3.10
2023-01-29T01:02:21.032Z,-3.00
2023-01-29T01:04:47.595Z,-2.90
2023-01-29T01:07:14.187Z,-2.90
2023-01-29T01:09:59.398Z,-2.90
2023-01-29T01:12:26.027Z,-2.90
2023-01-29T01:14:52.770Z,-3.00
2023-01-29T01:17:19.514Z,-2.90
2023-01-29T01:19:46.136Z,-2.90
2023-01-29T01:22:12.810Z,-2.90
2023-01-29T01:24:40.278Z,-3.00
2023-01-29T01:27:06.861Z,-3.00
2023-01-29T01:29:33.731Z,-3.00
2023-01-29T01:32:00.422Z,-3.10
2023-01-29T01:34:27.484Z,-3.10
2023-01-29T01:36:55.841Z,-3.10
2023-01-29T01:39:23.110Z,-3.10
2023-01-29T01:41:49.761Z,-3.10
2023-01-29T01:44:51.079Z,-3.10
2023-01-29T01:47:20.529Z,-3.20
2023-01-29T01:50:12.689Z,-3.20
2023-01-29T01:52:46.014Z,-3.20
2023-01-29T01:55:18.454Z,-3.20
2023-01-29T01:57:51.465Z,-3.20
2023-01-29T02:00:20.870Z,-3.30
2023-01-29T02:03:09.567Z,-3.30
2023-01-29T02:05:59.522Z,-3.30
2023-01-29T02:08:58.748Z,-3.20
2023-01-29T02:11:25.445Z,-3.20
2023-01-29T02:13:55.697Z,-3.20
2023-01-29T02:16:27.146Z,-3.10
2023-01-29T02:18:58.462Z,-3.20
2023-01-29T02:21:42.673Z,-3.20
2023-01-29T02:24:43.945Z,-3.10
2023-01-29T02:27:25.389Z,-3.20
2023-01-29T02:30:02.374Z,-3.20
2023-01-29T02:33:09.655Z,-3.30
2023-01-29T02:36:06.714Z,-3.30
2023-01-29T02:39:12.341Z,-3.30
2023-01-29T02:41:50.725Z,-3.40
2023-01-29T02:44:24.684Z,-3.40
2023-01-29T02:47:14.678Z,-3.40
2023-01-29T02:49:46.590Z,-3.30
2023-01-29T02:52:23.324Z,-3.30
2023-01-29T02:55:11.902Z,-3.20
2023-01-29T02:57:42.704Z,-3.10
2023-01-29T03:00:23.640Z,-3.10
2023-01-29T03:03:17.736Z,-3.20
2023-01-29T03:06:18.245Z,-3.30
2023-01-29T03:08:50.857Z,-3.20
2023-01-29T03:11:18.169Z,-3.20
2023-01-29T03:14:13.261Z,-3.20
2023-01-29T03:16:48.761Z,-3.10
2023-01-29T03:19:24.604Z,-3.10
2023-01-29T03:21:59.475Z,-3.00
2023-01-29T03:25:08.928Z,-3.00
2023-01-29T03:28:05.189Z,-2.90
2023-01-29T03:30:53.607Z,-2.90
2023-01-29T03:33:23.482Z,-2.80
2023-01-29T03:36:00.701Z,-2.70
2023-01-29T03:38:29.530Z,-2.70
2023-01-29T03:41:06.043Z,-2.60
2023-01-29T03:43:47.928Z,-2.50
2023-01-29T03:46:58.353Z,-2.50
2023-01-29T03:50:05.673Z,-2.50
2023-01-29T03:53:04.334Z,-2.50
2023-01-29T03:55:35.202Z,-2.50
2023-01-29T03:58:20.324Z,-2.50
2023-01-29T04:01:28.295Z,-2.50
2023-01-29T04:04:12.291Z,-2.40
2023-01-29T04:06:41.981Z,-2.30
2023-01-29T04:09:13.621Z,-2.30
2023-01-29T04:11:45.266Z,-2.20
2023-01-29T04:14:13.260Z,-2.20
2023-01-29T04:16:48.355Z,-2.10
2023-01-29T04:19:15.049Z,-2.00
2023-01-29T04:21:41.870Z,-1.90
2023-01-29T04:24:10.017Z,-2.00
2023-01-29T04:26:42.285Z,-2.00
2023-01-29T04:29:21.909Z,-2.00
2023-01-29T04:32:04.240Z,-1.90
2023-01-29T04:35:01.636Z,-1.90
2023-01-29T04:37:52.170Z,-1.80
2023-01-29T04:40:26.908Z,-1.90
2023-01-29T04:43:05.122Z,-1.90
2023-01-29T04:45:45.841Z,-1.80
2023-01-29T04:48:15.429Z,-1.70
2023-01-29T04:50:56.179Z,-1.60
2023-01-29T04:53:36.744Z,-1.60
2023-01-29T04:56:19.594Z,-1.50
2023-01-29T04:58:51.519Z,-1.50
2023-01-29T05:01:19.900Z,-1.40
2023-01-29T05:03:51.438Z,-1.20
2023-01-29T05:06:18.921Z,-1.10
2023-01-29T05:08:48.925Z,-1.00
2023-01-29T05:11:16.964Z,-1.00
2023-01-29T05:13:43.590Z,-0.80
2023-01-29T05:16:16.901Z,-0.70
2023-01-29T05:18:43.614Z,-0.70
2023-01-29T05:21:10.433Z,-0.60
2023-01-29T05:23:37.162Z,-0.60
2023-01-29T05:26:04.341Z,-0.60
2023-01-29T05:28:30.989Z,-0.60
2023-01-29T05:30:57.762Z,-0.60
2023-01-29T05:33:29.749Z,-0.50
2023-01-29T05:35:59.149Z,-0.50
2023-01-29T05:38:26.284Z,-0.40
2023-01-29T05:40:53.935Z,-0.40
2023-01-29T05:43:23.406Z,-0.30
2023-01-29T05:46:00.743Z,-0.30
2023-01-29T05:48:28.994Z,-0.30
2023-01-29T05:51:03.746Z,-0.30
2023-01-29T05:53:31.283Z,-0.30
2023-01-29T05:56:01.499Z,-0.20
2023-01-29T05:58:28.167Z,-0.20
2023-01-29T06:00:54.732Z,-0.20
2023-01-29T06:03:21.307Z,-0.20
2023-01-29T06:05:47.869Z,-0.20
2023-01-29T06:08:14.479Z,-0.10
2023-01-29T06:10:41.022Z,-0.10
2023-01-29T06:13:07.876Z,-0.10
2023-01-29T06:15:34.521Z,-0.20
2023-01-29T06:18:01.156Z,-0.20
2023-01-29T06:20:27.726Z,0.00
2023-01-29T06:22:54.279Z,0.00
2023-01-29T06:25:20.866Z,0.00
2023-01-29T06:27:50.953Z,0.00
2023-01-29T06:30:17.934Z,0.00
2023-01-29T06:32:44.789Z,0.10
2023-01-29T06:35:11.387Z,0.00
2023-01-29T06:37:38.273Z,0.10
2023-01-29T06:40:05.276Z,0.10
2023-01-29T06:42:31.840Z,0.00
2023-01-29T06:44:58.400Z,0.10
2023-01-29T06:47:24.992Z,0.10
2023-01-29T06:49:52.033Z,0.10
2023-01-29T06:52:18.615Z,0.10
2023-01-29T06:54:45.146Z,0.10
2023-01-29T06:57:11.699Z,0.10
2023-01-29T06:59:38.294Z,0.10
2023-01-29T07:02:05.086Z,0.00
2023-01-29T07:04:31.748Z,0.10
2023-01-29T07:06:59.972Z,0.10
2023-01-29T07:09:26.570Z,0.10
2023-01-29T07:11:53.159Z,0.10
2023-01-29T07:14:19.698Z,0.20
2023-01-29T07:16:46.222Z,0.20
2023-01-29T07:19:12.865Z,0.20
2023-01-29T07:21:39.431Z,0.20
2023-01-29T07:24:06.334Z,0.20
2023-01-29T07:26:32.942Z,0.20
2023-01-29T07:28:59.538Z,0.20
2023-01-29T07:31:26.145Z,1.20
2023-01-29T07:33:52.793Z,0.30
2023-01-29T07:36:19.472Z,0.30
2023-01-29T07:38:50.482Z,0.30
2023-01-29T07:41:17.076Z,0.40
2023-01-29T07:43:43.717Z,0.40
2023-01-29T07:46:10.382Z,0.30
2023-01-29T07:48:37.183Z,0.40
2023-01-29T07:51:06.226Z,0.40
2023-01-29T07:53:32.834Z,0.40
2023-01-29T07:55:59.486Z,0.40
2023-01-29T07:58:26.133Z,0.50
2023-01-29T08:00:52.724Z,0.60
2023-01-29T08:03:22.727Z,0.60
2023-01-29T08:05:49.407Z,0.60
2023-01-29T08:08:16.348Z,0.60
2023-01-29T08:10:43.311Z,0.60
2023-01-29T08:13:10.264Z,0.60
2023-01-29T08:15:39.088Z,0.60
2023-01-29T08:18:06.385Z,0.60
2023-01-29T08:20:33.022Z,0.60
2023-01-29T08:23:28.282Z,0.60
2023-01-29T08:25:54.933Z,0.70
2023-01-29T08:28:21.628Z,0.70
2023-01-29T08:30:48.224Z,0.80
2023-01-29T08:33:16.199Z,0.80
2023-01-29T08:35:42.919Z,0.80
2023-01-29T08:38:10.519Z,0.80
2023-01-29T08:40:37.550Z,0.80
2023-01-29T08:43:09.159Z,0.80
2023-01-29T08:45:39.717Z,0.80
2023-01-29T08:48:06.717Z,0.90
2023-01-29T08:50:34.861Z,1.10
2023-01-29T08:53:03.514Z,1.10
2023-01-29T08:55:30.266Z,1.10
2023-01-29T08:57:59.825Z,1.20
2023-01-29T09:00:26.527Z,1.20
2023-01-29T09:02:53.179Z,1.00
2023-01-29T09:05:20.193Z,1.10
2023-01-29T09:07:46.978Z,1.10
2023-01-29T09:10:13.740Z,1.20
2023-01-29T09:12:40.317Z,1.10
2023-01-29T09:15:07.476Z,1.20
2023-01-29T09:17:34.278Z,1.20
2023-01-29T09:20:00.954Z,1.20
2023-01-29T09:22:28.277Z,1.30
2023-01-29T09:24:54.881Z,1.30
2023-01-29T09:27:21.464Z,1.30
2023-01-29T09:29:48.041Z,1.40
2023-01-29T09:32:15.602Z,1.40
2023-01-29T09:34:43.454Z,1.40
2023-01-29T09:37:10.033Z,1.40
2023-01-29T09:39:37.946Z,1.50
2023-01-29T09:42:19.241Z,1.50
2023-01-29T09:44:53.785Z,1.50
2023-01-29T09:47:23.792Z,1.60
2023-01-29T09:49:57.058Z,1.60
2023-01-29T09:52:31.304Z,1.60
2023-01-29T09:55:02.566Z,1.60
2023-01-29T09:57:47.036Z,1.60
2023-01-29T10:00:48.158Z,1.60
2023-01-29T10:03:44.062Z,1.70
2023-01-29T10:06:38.120Z,1.60
2023-01-29T10:09:30.636Z,1.60
2023-01-29T10:12:41.880Z,1.80
2023-01-29T10:15:30.990Z,1.80
2023-01-29T10:18:45.410Z,1.90
2023-01-29T10:21:24.949Z,1.90
2023-01-29T10:24:01.812Z,2.00
2023-01-29T10:26:29.701Z,1.90
2023-01-29T10:28:58.465Z,1.90
2023-01-29T10:31:33.154Z,2.00
2023-01-29T10:34:25.529Z,2.10
2023-01-29T10:36:54.899Z,2.10
2023-01-29T10:39:24.426Z,2.10
2023-01-29T10:42:18.708Z,2.10
2023-01-29T10:45:09.616Z,2.20
2023-01-29T10:47:52.693Z,2.20
2023-01-29T10:50:28.579Z,2.20
2023-01-29T10:53:27.554Z,2.20
2023-01-29T10:56:22.752Z,2.30
2023-01-29T10:59:11.564Z,2.50
2023-01-29T11:01:38.141Z,2.40
2023-01-29T11:04:11.594Z,2.40
2023-01-29T11:06:38.267Z,2.40
2023-01-29T11:09:37.652Z,2.30
2023-01-29T11:12:13.945Z,2.40
2023-01-29T11:14:43.520Z,2.50
2023-01-29T11:17:18.945Z,2.40
2023-01-29T11:19:47.299Z,2.40
2023-01-29T11:22:16.664Z,2.30
2023-01-29T11:24:43.893Z,2.40
2023-01-29T11:27:25.750Z,2.40
2023-01-29T11:29:56.066Z,2.50
2023-01-29T11:32:22.582Z,2.50
2023-01-29T11:35:19.158Z,2.50
2023-01-29T11:37:46.937Z,2.60
2023-01-29T11:40:19.442Z,2.60
2023-01-29T11:42:49.854Z,2.70
2023-01-29T11:45:34.826Z,2.70
2023-01-29T11:48:01.715Z,2.60
2023-01-29T11:50:32.917Z,2.70
2023-01-29T11:53:00.417Z,2.80
2023-01-29T11:55:40.970Z,2.90
2023-01-29T11:58:26.280Z,2.90
2023-01-29T12:00:55.624Z,2.90
2023-01-29T12:03:37.362Z,3.00
2023-01-29T12:06:06.962Z,2.90
2023-01-29T12:08:41.879Z,2.90
2023-01-29T12:11:12.745Z,2.90
2023-01-29T12:13:43.105Z,3.00
2023-01-29T12:16:22.697Z,3.20
2023-01-29T12:18:55.726Z,3.20
2023-01-29T12:21:32.189Z,3.10
2023-01-29T12:24:07.460Z,3.10
2023-01-29T12:27:00.724Z,3.00
2023-01-29T12:29:40.538Z,3.10
2023-01-29T12:32:30.520Z,2.90
2023-01-29T12:35:19.074Z,3.00
2023-01-29T12:37:58.832Z,3.00
2023-01-29T12:40:29.402Z,3.00
2023-01-29T12:43:02.514Z,3.10
2023-01-29T12:45:30.768Z,3.00
2023-01-29T12:48:10.504Z,3.10
2023-01-29T12:50:38.450Z,3.10
2023-01-29T12:53:31.174Z,3.10
2023-01-29T12:56:07.845Z,3.20
2023-01-29T12:58:55.007Z,3.10
2023-01-29T13:01:38.409Z,3.00
2023-01-29T13:04:36.558Z,3.10
2023-01-29T13:07:18.870Z,3.20
2023-01-29T13:09:51.051Z,3.20
2023-01-29T13:12:19.349Z,3.10
2023-01-29T13:14:46.172Z,3.20
2023-01-29T13:17:32.519Z,3.10
2023-01-29T13:20:04.369Z,5.10
2023-01-29T13:22:36.770Z,3.10
2023-01-29T13:25:05.447Z,3.10
2023-01-29T13:27:34.682Z,3.10
2023-01-29T13:30:01.736Z,3.00
2023-01-29T13:32:30.527Z,3.00
2023-01-29T13:35:01.172Z,3.10
2023-01-29T13:37:36.047Z,2.90
2023-01-29T13:40:05.567Z,2.90
2023-01-29T13:42:45.597Z,3.00
2023-01-29T13:45:21.371Z,3.00
2023-01-29T13:47:51.319Z,3.00
2023-01-29T13:50:39.653Z,3.00
2023-01-29T13:53:09.025Z,2.90
2023-01-29T13:55:40.565Z,2.90
2023-01-29T13:58:17.525Z,2.80
2023-01-29T14:00:44.031Z,2.70
2023-01-29T14:03:13.248Z,2.70
2023-01-29T14:06:00.404Z,2.70
2023-01-29T14:08:38.919Z,2.80
2023-01-29T14:11:21.495Z,2.80
2023-01-29T14:13:49.868Z,2.80
2023-01-29T14:16:16.390Z,2.70
2023-01-29T14:18:49.184Z,2.70
2023-01-29T14:21:27.981Z,2.70
2023-01-29T14:23:57.842Z,2.70
2023-01-29T14:26:45.041Z,2.60
2023-01-29T14:29:32.553Z,2.60
2023-01-29T14:32:06.112Z,2.70
2023-01-29T14:34:59.529Z,2.70
2023-01-29T14:37:39.247Z,2.70
2023-01-29T14:40:11.572Z,2.60
2023-01-29T14:42:45.187Z,2.70
2023-01-29T14:45:35.935Z,2.60
2023-01-29T14:48:10.270Z,2.70
2023-01-29T14:50:37.601Z,2.60
2023-01-29T14:53:29.899Z,2.60
2023-01-29T14:55:59.292Z,2.60
2023-01-29T14:58:46.375Z,2.70
2023-01-29T15:01:21.001Z,2.70
2023-01-29T15:04:28.394Z,2.70
2023-01-29T15:07:16.603Z,2.60
2023-01-29T15:10:21.326Z,2.60
2023-01-29T15:13:20.447Z,2.70
2023-01-29T15:15:52.810Z,2.60
2023-01-29T15:18:34.581Z,2.70
2023-01-29T15:21:14.584Z,2.70
2023-01-29T15:23:43.075Z,2.70
2023-01-29T15:26:21.711Z,2.60
2023-01-29T15:29:03.615Z,2.60
2023-01-29T15:31:31.548Z,2.50
2023-01-29T15:34:02.868Z,2.50
2023-01-29T15:36:31.410Z,2.60
2023-01-29T15:39:13.246Z,2.60
2023-01-29T15:41:40.060Z,2.60
2023-01-29T15:44:21.052Z,2.60
2023-01-29T15:46:59.732Z,2.50
2023-01-29T15:49:34.728Z,2.50
2023-01-29T15:52:05.848Z,2.50
2023-01-29T15:54:34.740Z,2.70
2023-01-29T15:57:02.811Z,2.60
2023-01-29T15:59:34.575Z,2.60
2023-01-29T16:02:41.254Z,2.50
2023-01-29T16:05:39.413Z,2.60
2023-01-29T16:08:07.533Z,2.60
2023-01-29T16:10:34.824Z,2.60
2023-01-29T16:13:02.787Z,2.50
2023-01-29T16:15:33.613Z,2.60
2023-01-29T16:18:02.189Z,2.60
2023-01-29T16:20:43.105Z,2.60
2023-01-29T16:23:22.283Z,2.60
2023-01-29T16:25:49.463Z,2.60
2023-01-29T16:28:17.183Z,2.60
2023-01-29T16:30:43.838Z,2.60
2023-01-29T16:33:17.303Z,2.60
2023-01-29T16:35:51.199Z,2.70
2023-01-29T16:38:28.289Z,2.70
2023-01-29T16:41:18.777Z,2.60
2023-01-29T16:43:48.299Z,2.60
2023-01-29T16:46:24.012Z,2.70
2023-01-29T16:48:51.033Z,2.60
2023-01-29T16:51:25.814Z,2.50
2023-01-29T16:53:58.027Z,2.50
2023-01-29T16:56:26.408Z,2.60
2023-01-29T16:58:54.341Z,2.60
2023-01-29T17:01:24.260Z,2.60
2023-01-29T17:04:07.509Z,2.60
2023-01-29T17:06:34.734Z,2.60
2023-01-29T17:09:01.802Z,2.60
2023-01-29T17:11:39.939Z,2.70
2023-01-29T17:14:08.479Z,2.70
2023-01-29T17:16:46.487Z,2.70
2023-01-29T17:19:18.356Z,2.70
2023-01-29T17:21:45.422Z,2.70
2023-01-29T17:24:12.128Z,2.70
2023-01-29T17:26:39.593Z,2.70
2023-01-29T17:29:08.170Z,2.80
2023-01-29T17:31:34.852Z,2.80
2023-01-29T17:34:01.471Z,2.80
2023-01-29T17:36:28.028Z,2.80
2023-01-29T17:38:54.578Z,2.80
2023-01-29T17:41:29.543Z,2.80
2023-01-29T17:43:56.164Z,2.80
2023-01-29T17:46:22.809Z,2.80
2023-01-29T17:48:49.774Z,2.90
2023-01-29T17:51:18.018Z,2.90
2023-01-29T17:53:46.430Z,2.90
2023-01-29T17:56:21.127Z,2.90
2023-01-29T17:58:47.676Z,2.90
2023-01-29T18:01:14.232Z,2.90
2023-01-29T18:03:41.488Z,2.90
2023-01-29T18:06:09.328Z,3.00
2023-01-29T18:08:38.013Z,3.00
2023-01-29T18:11:04.814Z,3.00
2023-01-29T18:13:31.545Z,2.90
2023-01-29T18:15:58.141Z,3.00
2023-01-29T18:18:25.028Z,3.00
2023-01-29T18:20:51.861Z,3.10
2023-01-29T18:23:18.433Z,3.10
2023-01-29T18:25:45.146Z,3.10
2023-01-29T18:28:17.161Z,3.00
2023-01-29T18:30:46.969Z,3.10
2023-01-29T18:33:13.900Z,3.00
2023-01-29T18:35:40.622Z,3.10
2023-01-29T18:38:07.299Z,3.00
2023-01-29T18:40:33.917Z,3.00
2023-01-29T18:43:00.830Z,3.00
2023-01-29T18:45:28.367Z,3.00
2023-01-29T18:47:55.299Z,2.90
2023-01-29T18:50:26.059Z,2.90
2023-01-29T18:52:54.215Z,2.90
2023-01-29T18:55:21.456Z,3.00
2023-01-29T18:58:29.537Z,3.00
2023-01-29T19:00:34.958Z,3.00
2023-01-29T19:03:02.124Z,3.00
2023-01-29T19:05:28.719Z,3.00
2023-01-29T19:07:55.349Z,3.00
2023-01-29T19:10:22.575Z,3.00
2023-01-29T19:12:49.149Z,3.00
2023-01-29T19:15:20.406Z,3.00
2023-01-29T19:17:46.951Z,3.00
2023-01-29T19:20:13.575Z,2.90
2023-01-29T19:22:40.673Z,2.90
2023-01-29T19:25:07.738Z,3.00
2023-01-29T19:27:34.424Z,3.00
2023-01-29T19:30:02.010Z,3.00
2023-01-29T19:32:31.721Z,2.90
2023-01-29T19:34:58.586Z,3.00
2023-01-29T19:37:25.608Z,3.00
2023-01-29T19:39:53.575Z,3.00
2023-01-29T19:42:20.807Z,3.00
2023-01-29T19:44:47.618Z,3.00
2023-01-29T19:47:14.283Z,3.00
2023-01-29T19:49:40.934Z,3.00
2023-01-29T19:52:14.590Z,3.00
2023-01-29T19:54:48.722Z,3.00
2023-01-29T19:57:15.262Z,3.00
2023-01-29T19:59:45.616Z,3.00
2023-01-29T20:02:12.538Z,3.00
2023-01-29T20:04:39.131Z,3.00
2023-01-29T20:07:05.709Z,3.10
2023-01-29T20:09:32.476Z,3.10
2023-01-29T20:11:59.098Z,3.20
2023-01-29T20:14:25.739Z,3.20
2023-01-29T20:16:52.351Z,3.20
2023-01-29T20:19:20.475Z,3.10
2023-01-29T20:21:48.764Z,3.20
2023-01-29T20:24:15.421Z,3.20
2023-01-29T20:26:42.034Z,3.20
2023-01-29T20:29:08.625Z,3.20
2023-01-29T20:31:35.387Z,3.10
2023-01-29T20:34:01.992Z,3.10
2023-01-29T20:36:28.585Z,3.10
2023-01-29T20:42:42.958Z,3.20
2023-01-29T20:45:10.010Z,3.20
2023-01-29T20:47:36.619Z,3.20
2023-01-29T20:50:08.407Z,3.10
2023-01-29T20:52:35.617Z,3.20
2023-01-29T20:55:03.694Z,3.20
2023-01-29T20:57:30.597Z,3.20
2023-01-29T20:59:57.209Z,3.20
2023-01-29T21:02:23.867Z,3.20
2023-01-29T21:04:50.459Z,3.20
2023-01-29T21:07:17.148Z,3.20
2023-01-29T21:09:43.739Z,3.20
2023-01-29T21:12:10.443Z,3.30
2023-01-29T21:14:37.208Z,3.30
2023-01-29T21:17:04.784Z,3.30
2023-01-29T21:19:31.512Z,3.30
2023-01-29T21:21:58.094Z,3.20
2023-01-29T21:24:25.102Z,3.20
2023-01-29T21:26:51.901Z,3.20
2023-01-29T21:29:18.742Z,3.30
2023-01-29T21:31:45.677Z,3.20
2023-01-29T21:34:12.600Z,3.30
2023-01-29T21:36:39.213Z,3.30
2023-01-29T21:39:16.365Z,3.30
2023-01-29T21:42:02.933Z,3.30
2023-01-29T21:44:29.676Z,3.30
2023-01-29T21:46:56.607Z,3.40
2023-01-29T21:49:23.407Z,3.40
2023-01-29T21:51:50.132Z,3.50
2023-01-29T21:54:16.862Z,3.50
2023-01-29T21:56:43.514Z,3.50
2023-01-29T21:59:11.460Z,3.50
2023-01-29T22:01:38.896Z,3.60
2023-01-29T22:04:08.466Z,3.60
2023-01-29T22:06:35.076Z,3.60
2023-01-29T22:09:01.641Z,3.60
2023-01-29T22:11:28.589Z,3.60
2023-01-29T22:13:55.149Z,3.70
2023-01-29T22:16:21.786Z,3.70
2023-01-29T22:18:49.255Z,3.70
2023-01-29T22:21:15.826Z,3.70
2023-01-29T22:23:42.370Z,3.80
2023-01-29T22:26:11.061Z,3.80
2023-01-29T22:28:37.623Z,3.80
2023-01-29T22:31:05.373Z,3.80
2023-01-29T22:33:33.353Z,5.90
2023-01-29T22:36:00.025Z,3.80
2023-01-29T22:38:30.282Z,3.80
2023-01-29T22:40:59.544Z,3.80
2023-01-29T22:43:26.247Z,3.80
2023-01-29T22:45:52.900Z,3.90
2023-01-29T22:48:19.447Z,3.90
2023-01-29T22:50:53.603Z,3.90
2023-01-29T22:53:20.234Z,4.00
2023-01-29T22:55:56.154Z,4.00
2023-01-29T22:58:22.723Z,3.90
2023-01-29T23:00:52.375Z,3.90
2023-01-29T23:03:18.968Z,3.90
2023-01-29T23:05:45.550Z,3.90
2023-01-29T23:08:12.091Z,3.90
2023-01-29T23:10:38.817Z,3.90
2023-01-29T23:13:05.470Z,3.80
2023-01-29T23:15:32.099Z,3.90
2023-01-29T23:17:58.782Z,3.90
2023-01-29T23:20:25.365Z,3.90
2023-01-29T23:22:52.309Z,3.90
2023-01-29T23:25:18.935Z,3.90
2023-01-29T23:27:45.505Z,3.90
2023-01-29T23:30:12.345Z,3.90
2023-01-29T23:32:39.070Z,3.90
2023-01-29T23:35:06.107Z,3.90
2023-01-29T23:37:32.701Z,3.90
2023-01-29T23:39:59.316Z,5.10
2023-01-29T23:42:25.942Z,4.00
2023-01-29T23:44:52.475Z,4.00
2023-01-29T23:47:19.024Z,4.00
2023-01-29T23:49:45.664Z,4.00
2023-01-29T23:52:12.252Z,4.00
2023-01-29T23:54:38.848Z,4.10
2023-01-29T23:57:05.405Z,3.80
2023-01-29T23:59:32.008Z,4.10
